sensor_id;sensor_type;location;lat;lon;timestamp;temperature;humidity
7844;DHT22;3967;48.702;9.326;2023-04-25T00:01:30;10.80;92.50
7844;DHT22;3967;48.702;9.326;2023-04-25T00:03:56;10.80;92.60
7844;DHT22;3967;48.702;9.326;2023-04-25T00:06:24;10.80;92.60
7844;DHT22;3967;48.702;9.326;2023-04-25T00:08:53;10.80;92.60
7844;DHT22;3967;48.702;9.326;2023-04-25T00:11:20;10.90;92.70
7844;DHT22;3967;48.702;9.326;2023-04-25T00:13:47;10.80;92.50
7844;DHT22;3967;48.702;9.326;2023-04-25T00:16:16;10.80;92.80
7844;DHT22;3967;48.702;9.326;2023-04-25T00:18:43;10.80;92.70
7844;DHT22;3967;48.702;9.326;2023-04-25T00:21:12;10.80;92.80
7844;DHT22;3967;48.702;9.326;2023-04-25T00:23:39;10.80;92.80
7844;DHT22;3967;48.702;9.326;2023-04-25T00:26:05;10.80;92.60
7844;DHT22;3967;48.702;9.326;2023-04-25T00:28:32;10.70;92.70
7844;DHT22;3967;48.702;9.326;2023-04-25T00:30:59;10.70;92.60
7844;DHT22;3967;48.702;9.326;2023-04-25T00:33:26;10.70;92.70
7844;DHT22;3967;48.702;9.326;2023-04-25T00:35:53;10.70;92.90
7844;DHT22;3967;48.702;9.326;2023-04-25T00:38:19;10.70;92.90
7844;DHT22;3967;48.702;9.326;2023-04-25T00:40:46;10.70;92.80
7844;DHT22;3967;48.702;9.326;2023-04-25T00:43:13;10.60;92.80
7844;DHT22;3967;48.702;9.326;2023-04-25T00:45:40;10.50;93.20
7844;DHT22;3967;48.702;9.326;2023-04-25T00:48:07;10.60;93.30
7844;DHT22;3967;48.702;9.326;2023-04-25T00:50:34;10.60;93.30
7844;DHT22;3967;48.702;9.326;2023-04-25T00:53:04;10.50;93.30
7844;DHT22;3967;48.702;9.326;2023-04-25T00:55:31;10.50;93.60
7844;DHT22;3967;48.702;9.326;2023-04-25T00:57:58;10.50;93.40
7844;DHT22;3967;48.702;9.326;2023-04-25T01:00:25;10.50;93.50
7844;DHT22;3967;48.702;9.326;2023-04-25T01:02:52;10.60;93.30
7844;DHT22;3967;48.702;9.326;2023-04-25T01:05:19;10.50;93.20
7844;DHT22;3967;48.702;9.326;2023-04-25T01:07:46;10.40;93.40
7844;DHT22;3967;48.702;9.326;2023-04-25T01:10:13;10.50;93.30
7844;DHT22;3967;48.702;9.326;2023-04-25T01:12:40;10.60;93.20
7844;DHT22;3967;48.702;9.326;2023-04-25T01:15:07;10.50;93.50
7844;DHT22;3967;48.702;9.326;2023-04-25T01:20:21;10.40;93.60
7844;DHT22;3967;48.702;9.326;2023-04-25T01:22:50;10.40;93.80
7844;DHT22;3967;48.702;9.326;2023-04-25T01:25:19;10.50;93.90
7844;DHT22;3967;48.702;9.326;2023-04-25T01:27:46;10.50;94.00
7844;DHT22;3967;48.702;9.326;2023-04-25T01:30:13;10.40;94.30
7844;DHT22;3967;48.702;9.326;2023-04-25T01:32:41;10.40;94.30
7844;DHT22;3967;48.702;9.326;2023-04-25T01:35:10;10.40;94.30
7844;DHT22;3967;48.702;9.326;2023-04-25T01:37:41;10.30;94.40
7844;DHT22;3967;48.702;9.326;2023-04-25T01:40:09;10.30;94.60
7844;DHT22;3967;48.702;9.326;2023-04-25T01:42:38;10.20;95.00
7844;DHT22;3967;48.702;9.326;2023-04-25T01:45:07;10.20;95.50
7844;DHT22;3967;48.702;9.326;2023-04-25T01:47:34;10.20;96.20
7844;DHT22;3967;48.702;9.326;2023-04-25T01:50:02;10.20;96.90
7844;DHT22;3967;48.702;9.326;2023-04-25T01:52:29;10.30;97.50
7844;DHT22;3967;48.702;9.326;2023-04-25T01:54:57;10.10;97.90
7844;DHT22;3967;48.702;9.326;2023-04-25T01:57:24;10.20;98.10
7844;DHT22;3967;48.702;9.326;2023-04-25T01:59:51;10.20;98.20
7844;DHT22;3967;48.702;9.326;2023-04-25T02:02:18;10.20;98.20
7844;DHT22;3967;48.702;9.326;2023-04-25T02:04:44;10.10;98.70
7844;DHT22;3967;48.702;9.326;2023-04-25T02:07:11;10.20;99.00
7844;DHT22;3967;48.702;9.326;2023-04-25T02:09:38;10.10;98.50
7844;DHT22;3967;48.702;9.326;2023-04-25T02:12:05;10.00;99.10
7844;DHT22;3967;48.702;9.326;2023-04-25T02:14:31;10.00;99.00
7844;DHT22;3967;48.702;9.326;2023-04-25T02:16:58;9.90;98.80
7844;DHT22;3967;48.702;9.326;2023-04-25T02:19:25;9.90;98.90
7844;DHT22;3967;48.702;9.326;2023-04-25T02:21:52;9.80;98.50
7844;DHT22;3967;48.702;9.326;2023-04-25T02:24:18;9.90;98.40
7844;DHT22;3967;48.702;9.326;2023-04-25T02:26:45;9.90;98.40
7844;DHT22;3967;48.702;9.326;2023-04-25T02:29:13;9.90;97.70
7844;DHT22;3967;48.702;9.326;2023-04-25T02:31:42;9.90;97.60
7844;DHT22;3967;48.702;9.326;2023-04-25T02:34:08;9.90;97.40
7844;DHT22;3967;48.702;9.326;2023-04-25T02:36:35;9.90;97.50
7844;DHT22;3967;48.702;9.326;2023-04-25T02:39:02;10.00;96.80
7844;DHT22;3967;48.702;9.326;2023-04-25T02:41:29;10.10;96.50
7844;DHT22;3967;48.702;9.326;2023-04-25T02:43:56;10.00;96.50
7844;DHT22;3967;48.702;9.326;2023-04-25T02:46:22;10.00;96.70
7844;DHT22;3967;48.702;9.326;2023-04-25T02:49:04;10.10;96.90
7844;DHT22;3967;48.702;9.326;2023-04-25T02:51:31;10.00;96.60
7844;DHT22;3967;48.702;9.326;2023-04-25T02:53:59;10.00;96.90
7844;DHT22;3967;48.702;9.326;2023-04-25T02:56:25;10.00;96.90
7844;DHT22;3967;48.702;9.326;2023-04-25T02:58:53;10.00;97.00
7844;DHT22;3967;48.702;9.326;2023-04-25T03:01:20;10.00;96.70
7844;DHT22;3967;48.702;9.326;2023-04-25T03:03:47;9.90;97.10
7844;DHT22;3967;48.702;9.326;2023-04-25T03:06:14;9.90;97.70
7844;DHT22;3967;48.702;9.326;2023-04-25T03:08:42;10.00;97.10
7844;DHT22;3967;48.702;9.326;2023-04-25T03:11:09;10.00;97.20
7844;DHT22;3967;48.702;9.326;2023-04-25T03:13:36;10.00;97.30
7844;DHT22;3967;48.702;9.326;2023-04-25T03:16:03;10.00;97.20
7844;DHT22;3967;48.702;9.326;2023-04-25T03:18:30;10.00;97.30
7844;DHT22;3967;48.702;9.326;2023-04-25T03:20:57;10.00;97.50
7844;DHT22;3967;48.702;9.326;2023-04-25T03:23:23;9.90;98.00
7844;DHT22;3967;48.702;9.326;2023-04-25T03:25:50;9.90;98.30
7844;DHT22;3967;48.702;9.326;2023-04-25T03:28:17;9.80;98.30
7844;DHT22;3967;48.702;9.326;2023-04-25T03:30:44;9.80;98.20
7844;DHT22;3967;48.702;9.326;2023-04-25T03:33:11;9.80;98.30
7844;DHT22;3967;48.702;9.326;2023-04-25T03:35:37;9.80;98.50
7844;DHT22;3967;48.702;9.326;2023-04-25T03:38:04;9.80;98.20
7844;DHT22;3967;48.702;9.326;2023-04-25T03:40:31;9.90;98.30
7844;DHT22;3967;48.702;9.326;2023-04-25T03:42:58;9.90;98.20
7844;DHT22;3967;48.702;9.326;2023-04-25T03:45:24;9.90;98.40
7844;DHT22;3967;48.702;9.326;2023-04-25T03:47:51;9.90;98.50
7844;DHT22;3967;48.702;9.326;2023-04-25T03:50:18;9.80;98.50
7844;DHT22;3967;48.702;9.326;2023-04-25T03:52:44;9.80;98.50
7844;DHT22;3967;48.702;9.326;2023-04-25T03:55:11;9.80;98.70
7844;DHT22;3967;48.702;9.326;2023-04-25T03:57:38;9.90;98.50
7844;DHT22;3967;48.702;9.326;2023-04-25T04:00:05;9.90;98.00
7844;DHT22;3967;48.702;9.326;2023-04-25T04:02:33;9.90;97.70
7844;DHT22;3967;48.702;9.326;2023-04-25T04:05:01;9.80;97.50
7844;DHT22;3967;48.702;9.326;2023-04-25T04:07:29;9.90;97.70
7844;DHT22;3967;48.702;9.326;2023-04-25T04:09:56;9.90;97.60
7844;DHT22;3967;48.702;9.326;2023-04-25T04:12:25;9.90;97.70
7844;DHT22;3967;48.702;9.326;2023-04-25T04:14:52;9.80;97.80
7844;DHT22;3967;48.702;9.326;2023-04-25T04:17:18;9.80;97.70
7844;DHT22;3967;48.702;9.326;2023-04-25T04:19:45;9.80;97.90
7844;DHT22;3967;48.702;9.326;2023-04-25T04:22:12;9.80;97.90
7844;DHT22;3967;48.702;9.326;2023-04-25T04:24:38;9.80;97.70
7844;DHT22;3967;48.702;9.326;2023-04-25T04:27:05;9.80;97.90
7844;DHT22;3967;48.702;9.326;2023-04-25T04:29:32;9.90;98.30
7844;DHT22;3967;48.702;9.326;2023-04-25T04:31:59;9.80;98.40
7844;DHT22;3967;48.702;9.326;2023-04-25T04:34:27;9.80;98.60
7844;DHT22;3967;48.702;9.326;2023-04-25T04:36:54;9.80;98.60
7844;DHT22;3967;48.702;9.326;2023-04-25T04:39:21;9.80;98.60
7844;DHT22;3967;48.702;9.326;2023-04-25T04:41:48;9.80;98.70
7844;DHT22;3967;48.702;9.326;2023-04-25T04:44:15;9.80;99.20
7844;DHT22;3967;48.702;9.326;2023-04-25T04:46:41;9.80;99.00
7844;DHT22;3967;48.702;9.326;2023-04-25T04:49:09;9.80;99.00
7844;DHT22;3967;48.702;9.326;2023-04-25T04:51:37;9.70;99.40
7844;DHT22;3967;48.702;9.326;2023-04-25T04:54:04;9.80;99.80
7844;DHT22;3967;48.702;9.326;2023-04-25T04:56:31;9.80;99.60
7844;DHT22;3967;48.702;9.326;2023-04-25T04:58:58;9.80;99.20
7844;DHT22;3967;48.702;9.326;2023-04-25T05:01:26;9.80;99.40
7844;DHT22;3967;48.702;9.326;2023-04-25T05:03:53;9.80;99.10
7844;DHT22;3967;48.702;9.326;2023-04-25T05:06:20;9.90;99.30
7844;DHT22;3967;48.702;9.326;2023-04-25T05:08:47;9.80;99.40
7844;DHT22;3967;48.702;9.326;2023-04-25T05:11:14;9.80;99.40
7844;DHT22;3967;48.702;9.326;2023-04-25T05:13:41;9.70;99.40
7844;DHT22;3967;48.702;9.326;2023-04-25T05:16:07;9.80;99.60
7844;DHT22;3967;48.702;9.326;2023-04-25T05:18:34;9.80;99.50
7844;DHT22;3967;48.702;9.326;2023-04-25T05:21:01;9.80;99.40
7844;DHT22;3967;48.702;9.326;2023-04-25T05:23:28;9.80;99.40
7844;DHT22;3967;48.702;9.326;2023-04-25T05:25:59;9.80;99.20
7844;DHT22;3967;48.702;9.326;2023-04-25T05:28:26;9.80;99.30
7844;DHT22;3967;48.702;9.326;2023-04-25T05:30:53;9.70;98.90
7844;DHT22;3967;48.702;9.326;2023-04-25T05:33:20;9.60;99.20
7844;DHT22;3967;48.702;9.326;2023-04-25T05:35:46;9.70;99.40
7844;DHT22;3967;48.702;9.326;2023-04-25T05:38:13;9.60;99.60
7844;DHT22;3967;48.702;9.326;2023-04-25T05:40:40;9.50;99.50
7844;DHT22;3967;48.702;9.326;2023-04-25T05:43:07;9.40;99.70
7844;DHT22;3967;48.702;9.326;2023-04-25T05:45:33;9.40;99.90
7844;DHT22;3967;48.702;9.326;2023-04-25T05:48:00;9.40;99.40
7844;DHT22;3967;48.702;9.326;2023-04-25T05:50:27;9.40;99.60
7844;DHT22;3967;48.702;9.326;2023-04-25T05:52:54;9.40;99.90
7844;DHT22;3967;48.702;9.326;2023-04-25T05:55:20;9.50;99.80
7844;DHT22;3967;48.702;9.326;2023-04-25T05:57:47;9.50;99.50
7844;DHT22;3967;48.702;9.326;2023-04-25T06:00:17;9.60;99.30
7844;DHT22;3967;48.702;9.326;2023-04-25T06:02:45;9.60;99.30
7844;DHT22;3967;48.702;9.326;2023-04-25T06:05:12;9.70;99.00
7844;DHT22;3967;48.702;9.326;2023-04-25T06:07:39;9.70;99.20
7844;DHT22;3967;48.702;9.326;2023-04-25T06:10:06;9.70;99.50
7844;DHT22;3967;48.702;9.326;2023-04-25T06:12:33;9.90;99.10
7844;DHT22;3967;48.702;9.326;2023-04-25T06:15:00;10.00;98.60
7844;DHT22;3967;48.702;9.326;2023-04-25T06:17:28;10.00;98.20
7844;DHT22;3967;48.702;9.326;2023-04-25T06:19:54;10.00;98.10
7844;DHT22;3967;48.702;9.326;2023-04-25T06:22:21;10.00;97.80
7844;DHT22;3967;48.702;9.326;2023-04-25T06:24:48;10.10;98.00
7844;DHT22;3967;48.702;9.326;2023-04-25T06:27:14;10.00;97.80
7844;DHT22;3967;48.702;9.326;2023-04-25T06:29:42;9.90;97.80
7844;DHT22;3967;48.702;9.326;2023-04-25T06:32:09;9.90;98.30
7844;DHT22;3967;48.702;9.326;2023-04-25T06:34:36;9.90;98.40
7844;DHT22;3967;48.702;9.326;2023-04-25T06:37:03;9.80;99.00
7844;DHT22;3967;48.702;9.326;2023-04-25T06:39:29;10.00;98.00
7844;DHT22;3967;48.702;9.326;2023-04-25T06:41:56;9.80;98.00
7844;DHT22;3967;48.702;9.326;2023-04-25T06:44:23;9.90;98.10
7844;DHT22;3967;48.702;9.326;2023-04-25T06:46:50;10.00;96.90
7844;DHT22;3967;48.702;9.326;2023-04-25T06:49:17;10.00;96.80
7844;DHT22;3967;48.702;9.326;2023-04-25T06:51:44;10.10;97.00
7844;DHT22;3967;48.702;9.326;2023-04-25T06:54:10;10.10;96.40
7844;DHT22;3967;48.702;9.326;2023-04-25T06:56:37;10.10;95.90
7844;DHT22;3967;48.702;9.326;2023-04-25T06:59:04;10.10;96.10
7844;DHT22;3967;48.702;9.326;2023-04-25T07:01:30;10.10;95.90
7844;DHT22;3967;48.702;9.326;2023-04-25T07:03:57;10.20;96.00
7844;DHT22;3967;48.702;9.326;2023-04-25T07:06:24;10.30;95.40
7844;DHT22;3967;48.702;9.326;2023-04-25T07:08:53;10.30;95.40
7844;DHT22;3967;48.702;9.326;2023-04-25T07:11:23;10.30;95.50
7844;DHT22;3967;48.702;9.326;2023-04-25T07:13:49;10.30;95.80
7844;DHT22;3967;48.702;9.326;2023-04-25T07:16:16;10.30;95.30
7844;DHT22;3967;48.702;9.326;2023-04-25T07:21:19;10.00;93.70
7844;DHT22;3967;48.702;9.326;2023-04-25T07:23:46;10.00;94.20
7844;DHT22;3967;48.702;9.326;2023-04-25T07:26:13;10.00;94.00
7844;DHT22;3967;48.702;9.326;2023-04-25T07:28:40;10.10;93.80
7844;DHT22;3967;48.702;9.326;2023-04-25T07:31:06;10.10;94.10
7844;DHT22;3967;48.702;9.326;2023-04-25T07:33:33;10.10;94.00
7844;DHT22;3967;48.702;9.326;2023-04-25T07:36:00;10.10;94.00
7844;DHT22;3967;48.702;9.326;2023-04-25T07:38:27;10.10;94.00
7844;DHT22;3967;48.702;9.326;2023-04-25T07:40:54;10.10;94.40
7844;DHT22;3967;48.702;9.326;2023-04-25T07:43:21;10.00;95.00
7844;DHT22;3967;48.702;9.326;2023-04-25T07:45:48;10.10;95.70
7844;DHT22;3967;48.702;9.326;2023-04-25T07:48:17;10.00;95.90
7844;DHT22;3967;48.702;9.326;2023-04-25T07:50:45;9.70;96.40
7844;DHT22;3967;48.702;9.326;2023-04-25T07:53:11;9.60;97.80
7844;DHT22;3967;48.702;9.326;2023-04-25T07:55:41;9.60;98.60
7844;DHT22;3967;48.702;9.326;2023-04-25T07:58:07;9.60;98.80
7844;DHT22;3967;48.702;9.326;2023-04-25T08:00:35;9.60;99.40
7844;DHT22;3967;48.702;9.326;2023-04-25T08:03:02;9.70;99.90
7844;DHT22;3967;48.702;9.326;2023-04-25T08:05:29;9.80;99.90
7844;DHT22;3967;48.702;9.326;2023-04-25T08:07:56;9.80;99.90
7844;DHT22;3967;48.702;9.326;2023-04-25T08:10:23;9.60;99.90
7844;DHT22;3967;48.702;9.326;2023-04-25T08:12:50;9.50;99.90
7844;DHT22;3967;48.702;9.326;2023-04-25T08:15:16;9.50;99.90
7844;DHT22;3967;48.702;9.326;2023-04-25T08:17:43;9.70;99.90
7844;DHT22;3967;48.702;9.326;2023-04-25T08:20:12;9.90;99.90
7844;DHT22;3967;48.702;9.326;2023-04-25T08:22:38;9.80;99.90
7844;DHT22;3967;48.702;9.326;2023-04-25T08:25:05;9.90;99.90
7844;DHT22;3967;48.702;9.326;2023-04-25T08:27:32;9.80;99.90
7844;DHT22;3967;48.702;9.326;2023-04-25T08:30:02;9.70;99.90
7844;DHT22;3967;48.702;9.326;2023-04-25T08:32:30;9.60;99.90
7844;DHT22;3967;48.702;9.326;2023-04-25T08:34:56;9.60;99.90
7844;DHT22;3967;48.702;9.326;2023-04-25T08:37:23;9.60;99.90
7844;DHT22;3967;48.702;9.326;2023-04-25T08:39:50;9.40;99.90
7844;DHT22;3967;48.702;9.326;2023-04-25T08:42:19;9.50;99.90
7844;DHT22;3967;48.702;9.326;2023-04-25T08:44:48;9.50;99.90
7844;DHT22;3967;48.702;9.326;2023-04-25T08:47:15;9.50;99.90
7844;DHT22;3967;48.702;9.326;2023-04-25T08:49:45;9.60;99.90
7844;DHT22;3967;48.702;9.326;2023-04-25T08:52:13;9.50;99.90
7844;DHT22;3967;48.702;9.326;2023-04-25T08:54:45;9.60;99.90
7844;DHT22;3967;48.702;9.326;2023-04-25T08:57:14;9.60;99.90
7844;DHT22;3967;48.702;9.326;2023-04-25T08:59:42;9.50;99.90
7844;DHT22;3967;48.702;9.326;2023-04-25T09:02:12;9.50;99.90
7844;DHT22;3967;48.702;9.326;2023-04-25T09:04:43;9.60;99.90
7844;DHT22;3967;48.702;9.326;2023-04-25T09:07:11;9.60;99.90
7844;DHT22;3967;48.702;9.326;2023-04-25T09:09:38;9.60;99.90
7844;DHT22;3967;48.702;9.326;2023-04-25T09:12:05;9.70;99.90
7844;DHT22;3967;48.702;9.326;2023-04-25T09:14:32;9.80;99.90
7844;DHT22;3967;48.702;9.326;2023-04-25T09:17:00;9.80;99.90
7844;DHT22;3967;48.702;9.326;2023-04-25T09:19:31;10.00;99.90
7844;DHT22;3967;48.702;9.326;2023-04-25T09:22:07;9.90;99.90
7844;DHT22;3967;48.702;9.326;2023-04-25T09:24:40;9.90;99.90
7844;DHT22;3967;48.702;9.326;2023-04-25T09:27:19;9.70;99.90
7844;DHT22;3967;48.702;9.326;2023-04-25T09:29:46;9.70;99.90
7844;DHT22;3967;48.702;9.326;2023-04-25T09:32:20;9.60;99.90
7844;DHT22;3967;48.702;9.326;2023-04-25T09:34:49;9.60;99.90
7844;DHT22;3967;48.702;9.326;2023-04-25T09:37:18;9.70;99.90
7844;DHT22;3967;48.702;9.326;2023-04-25T09:39:54;9.70;99.90
7844;DHT22;3967;48.702;9.326;2023-04-25T09:42:25;9.70;99.90
7844;DHT22;3967;48.702;9.326;2023-04-25T09:44:54;9.60;99.90
7844;DHT22;3967;48.702;9.326;2023-04-25T09:47:23;9.70;99.90
7844;DHT22;3967;48.702;9.326;2023-04-25T09:49:51;9.50;99.90
7844;DHT22;3967;48.702;9.326;2023-04-25T09:52:23;9.30;99.90
7844;DHT22;3967;48.702;9.326;2023-04-25T09:54:52;9.30;99.90
7844;DHT22;3967;48.702;9.326;2023-04-25T09:57:25;9.30;99.90
7844;DHT22;3967;48.702;9.326;2023-04-25T09:59:53;9.30;99.90
7844;DHT22;3967;48.702;9.326;2023-04-25T10:02:26;9.30;99.90
7844;DHT22;3967;48.702;9.326;2023-04-25T10:04:54;9.20;99.90
7844;DHT22;3967;48.702;9.326;2023-04-25T10:07:23;9.20;99.90
7844;DHT22;3967;48.702;9.326;2023-04-25T10:09:59;9.40;99.90
7844;DHT22;3967;48.702;9.326;2023-04-25T10:12:27;9.40;99.90
7844;DHT22;3967;48.702;9.326;2023-04-25T10:14:54;9.40;99.90
7844;DHT22;3967;48.702;9.326;2023-04-25T10:17:21;9.30;99.90
7844;DHT22;3967;48.702;9.326;2023-04-25T10:19:49;9.30;99.90
7844;DHT22;3967;48.702;9.326;2023-04-25T10:22:26;9.20;99.90
7844;DHT22;3967;48.702;9.326;2023-04-25T10:24:55;9.20;99.90
7844;DHT22;3967;48.702;9.326;2023-04-25T10:27:23;9.00;99.90
7844;DHT22;3967;48.702;9.326;2023-04-25T10:30:04;9.10;99.90
7844;DHT22;3967;48.702;9.326;2023-04-25T10:32:32;9.10;99.90
7844;DHT22;3967;48.702;9.326;2023-04-25T10:35:15;9.10;99.90
7844;DHT22;3967;48.702;9.326;2023-04-25T10:38:04;9.10;99.90
7844;DHT22;3967;48.702;9.326;2023-04-25T10:40:32;9.00;99.90
7844;DHT22;3967;48.702;9.326;2023-04-25T10:45:59;8.70;99.90
7844;DHT22;3967;48.702;9.326;2023-04-25T10:48:26;8.60;99.90
7844;DHT22;3967;48.702;9.326;2023-04-25T10:51:08;8.60;99.90
7844;DHT22;3967;48.702;9.326;2023-04-25T10:53:36;8.70;99.90
7844;DHT22;3967;48.702;9.326;2023-04-25T10:56:23;8.70;99.90
7844;DHT22;3967;48.702;9.326;2023-04-25T10:58:50;8.90;99.90
7844;DHT22;3967;48.702;9.326;2023-04-25T11:01:21;9.00;99.90
7844;DHT22;3967;48.702;9.326;2023-04-25T11:03:48;9.00;99.90
7844;DHT22;3967;48.702;9.326;2023-04-25T11:06:37;9.00;99.90
7844;DHT22;3967;48.702;9.326;2023-04-25T11:09:11;9.10;99.90
7844;DHT22;3967;48.702;9.326;2023-04-25T11:11:40;9.00;99.90
7844;DHT22;3967;48.702;9.326;2023-04-25T11:14:07;8.90;99.90
7844;DHT22;3967;48.702;9.326;2023-04-25T11:16:33;8.90;99.90
7844;DHT22;3967;48.702;9.326;2023-04-25T11:19:00;9.00;99.90
7844;DHT22;3967;48.702;9.326;2023-04-25T11:21:27;9.00;99.90
7844;DHT22;3967;48.702;9.326;2023-04-25T11:23:58;9.00;99.90
7844;DHT22;3967;48.702;9.326;2023-04-25T11:26:25;9.10;99.90
7844;DHT22;3967;48.702;9.326;2023-04-25T11:28:57;9.10;99.90
7844;DHT22;3967;48.702;9.326;2023-04-25T11:31:25;9.10;99.90
7844;DHT22;3967;48.702;9.326;2023-04-25T11:33:59;9.00;99.90
7844;DHT22;3967;48.702;9.326;2023-04-25T11:36:26;8.80;99.90
7844;DHT22;3967;48.702;9.326;2023-04-25T11:38:54;8.40;99.90
7844;DHT22;3967;48.702;9.326;2023-04-25T11:41:23;8.20;99.90
7844;DHT22;3967;48.702;9.326;2023-04-25T11:43:50;8.20;99.90
7844;DHT22;3967;48.702;9.326;2023-04-25T11:46:18;8.30;99.90
7844;DHT22;3967;48.702;9.326;2023-04-25T11:48:46;8.40;99.90
7844;DHT22;3967;48.702;9.326;2023-04-25T11:51:14;8.50;99.90
7844;DHT22;3967;48.702;9.326;2023-04-25T11:53:42;8.30;99.90
7844;DHT22;3967;48.702;9.326;2023-04-25T11:56:11;8.40;99.90
7844;DHT22;3967;48.702;9.326;2023-04-25T11:59:16;8.30;99.90
7844;DHT22;3967;48.702;9.326;2023-04-25T12:01:52;8.50;99.90
7844;DHT22;3967;48.702;9.326;2023-04-25T12:04:21;8.50;99.90
7844;DHT22;3967;48.702;9.326;2023-04-25T12:06:52;8.50;99.90
7844;DHT22;3967;48.702;9.326;2023-04-25T12:09:23;8.60;99.90
7844;DHT22;3967;48.702;9.326;2023-04-25T12:11:55;8.70;99.90
7844;DHT22;3967;48.702;9.326;2023-04-25T12:14:24;8.90;99.90
7844;DHT22;3967;48.702;9.326;2023-04-25T12:16:51;8.80;99.90
7844;DHT22;3967;48.702;9.326;2023-04-25T12:19:19;8.80;99.90
7844;DHT22;3967;48.702;9.326;2023-04-25T12:21:50;9.00;99.90
7844;DHT22;3967;48.702;9.326;2023-04-25T12:24:25;9.00;99.90
7844;DHT22;3967;48.702;9.326;2023-04-25T12:27:06;9.20;99.90
7844;DHT22;3967;48.702;9.326;2023-04-25T12:29:35;9.40;99.90
7844;DHT22;3967;48.702;9.326;2023-04-25T12:32:15;9.40;99.90
7844;DHT22;3967;48.702;9.326;2023-04-25T12:34:42;9.20;99.90
7844;DHT22;3967;48.702;9.326;2023-04-25T12:37:09;9.20;99.90
7844;DHT22;3967;48.702;9.326;2023-04-25T12:39:36;9.40;99.90
7844;DHT22;3967;48.702;9.326;2023-04-25T12:42:03;9.50;99.90
7844;DHT22;3967;48.702;9.326;2023-04-25T12:44:33;9.60;99.90
7844;DHT22;3967;48.702;9.326;2023-04-25T12:47:00;9.70;99.90
7844;DHT22;3967;48.702;9.326;2023-04-25T12:49:27;9.60;99.90
7844;DHT22;3967;48.702;9.326;2023-04-25T12:51:54;9.80;99.90
7844;DHT22;3967;48.702;9.326;2023-04-25T12:54:21;9.70;99.90
7844;DHT22;3967;48.702;9.326;2023-04-25T12:56:47;9.70;99.90
7844;DHT22;3967;48.702;9.326;2023-04-25T12:59:14;9.70;99.90
7844;DHT22;3967;48.702;9.326;2023-04-25T13:01:41;9.80;99.90
7844;DHT22;3967;48.702;9.326;2023-04-25T13:04:09;9.80;99.90
7844;DHT22;3967;48.702;9.326;2023-04-25T13:06:36;10.00;99.90
7844;DHT22;3967;48.702;9.326;2023-04-25T13:09:03;10.20;99.90
7844;DHT22;3967;48.702;9.326;2023-04-25T13:11:30;10.10;99.90
7844;DHT22;3967;48.702;9.326;2023-04-25T13:13:57;10.20;99.90
7844;DHT22;3967;48.702;9.326;2023-04-25T13:16:24;10.20;99.90
7844;DHT22;3967;48.702;9.326;2023-04-25T13:18:51;10.10;99.90
7844;DHT22;3967;48.702;9.326;2023-04-25T13:21:17;10.20;99.90
7844;DHT22;3967;48.702;9.326;2023-04-25T13:23:44;10.30;99.90
7844;DHT22;3967;48.702;9.326;2023-04-25T13:26:13;10.20;99.90
7844;DHT22;3967;48.702;9.326;2023-04-25T13:28:39;10.30;99.90
7844;DHT22;3967;48.702;9.326;2023-04-25T13:31:10;10.20;99.90
7844;DHT22;3967;48.702;9.326;2023-04-25T13:33:37;10.40;99.90
7844;DHT22;3967;48.702;9.326;2023-04-25T13:36:04;10.50;99.90
7844;DHT22;3967;48.702;9.326;2023-04-25T13:38:30;10.50;99.90
7844;DHT22;3967;48.702;9.326;2023-04-25T13:40:57;10.50;99.90
7844;DHT22;3967;48.702;9.326;2023-04-25T13:43:24;10.60;99.90
7844;DHT22;3967;48.702;9.326;2023-04-25T13:45:51;10.60;99.30
7844;DHT22;3967;48.702;9.326;2023-04-25T13:48:18;10.80;98.80
7844;DHT22;3967;48.702;9.326;2023-04-25T13:50:46;10.80;99.90
7844;DHT22;3967;48.702;9.326;2023-04-25T13:53:13;10.80;99.90
7844;DHT22;3967;48.702;9.326;2023-04-25T13:55:40;10.90;99.90
7844;DHT22;3967;48.702;9.326;2023-04-25T13:58:06;11.00;99.60
7844;DHT22;3967;48.702;9.326;2023-04-25T14:00:38;11.20;99.90
7844;DHT22;3967;48.702;9.326;2023-04-25T14:03:06;11.00;99.20
7844;DHT22;3967;48.702;9.326;2023-04-25T14:05:37;11.00;99.40
7844;DHT22;3967;48.702;9.326;2023-04-25T14:08:08;11.10;99.90
7844;DHT22;3967;48.702;9.326;2023-04-25T14:10:36;11.20;97.40
7844;DHT22;3967;48.702;9.326;2023-04-25T14:13:03;11.20;97.90
7844;DHT22;3967;48.702;9.326;2023-04-25T14:15:34;11.20;98.50
7844;DHT22;3967;48.702;9.326;2023-04-25T14:18:01;11.20;97.70
7844;DHT22;3967;48.702;9.326;2023-04-25T14:20:28;11.40;97.90
7844;DHT22;3967;48.702;9.326;2023-04-25T14:22:58;11.40;97.90
7844;DHT22;3967;48.702;9.326;2023-04-25T14:25:25;11.40;97.90
7844;DHT22;3967;48.702;9.326;2023-04-25T14:27:52;11.60;97.20
7844;DHT22;3967;48.702;9.326;2023-04-25T14:30:20;11.50;96.60
7844;DHT22;3967;48.702;9.326;2023-04-25T14:32:50;11.60;98.00
7844;DHT22;3967;48.702;9.326;2023-04-25T14:35:18;11.60;96.40
7844;DHT22;3967;48.702;9.326;2023-04-25T14:37:44;11.60;96.50
7844;DHT22;3967;48.702;9.326;2023-04-25T14:40:12;11.50;95.90
7844;DHT22;3967;48.702;9.326;2023-04-25T14:42:42;11.60;97.50
7844;DHT22;3967;48.702;9.326;2023-04-25T14:45:09;11.80;97.20
7844;DHT22;3967;48.702;9.326;2023-04-25T14:47:37;11.70;96.00
7844;DHT22;3967;48.702;9.326;2023-04-25T14:50:05;11.80;95.40
7844;DHT22;3967;48.702;9.326;2023-04-25T14:52:32;12.00;95.30
7844;DHT22;3967;48.702;9.326;2023-04-25T14:54:58;11.90;95.20
7844;DHT22;3967;48.702;9.326;2023-04-25T14:57:27;11.80;94.70
7844;DHT22;3967;48.702;9.326;2023-04-25T14:59:53;11.90;94.90
7844;DHT22;3967;48.702;9.326;2023-04-25T15:02:20;12.00;95.30
7844;DHT22;3967;48.702;9.326;2023-04-25T15:04:48;12.00;95.30
7844;DHT22;3967;48.702;9.326;2023-04-25T15:07:15;11.80;93.50
7844;DHT22;3967;48.702;9.326;2023-04-25T15:09:48;11.80;93.20
7844;DHT22;3967;48.702;9.326;2023-04-25T15:12:16;11.90;93.00
7844;DHT22;3967;48.702;9.326;2023-04-25T15:14:42;11.90;92.60
7844;DHT22;3967;48.702;9.326;2023-04-25T15:17:09;12.10;92.70
7844;DHT22;3967;48.702;9.326;2023-04-25T15:19:36;11.90;93.50
7844;DHT22;3967;48.702;9.326;2023-04-25T15:22:03;12.00;94.70
7844;DHT22;3967;48.702;9.326;2023-04-25T15:24:29;12.20;93.60
7844;DHT22;3967;48.702;9.326;2023-04-25T15:26:56;12.10;93.10
7844;DHT22;3967;48.702;9.326;2023-04-25T15:29:23;12.10;92.80
7844;DHT22;3967;48.702;9.326;2023-04-25T15:31:50;12.10;92.00
7844;DHT22;3967;48.702;9.326;2023-04-25T15:34:17;12.20;91.00
7844;DHT22;3967;48.702;9.326;2023-04-25T15:36:43;12.30;90.80
7844;DHT22;3967;48.702;9.326;2023-04-25T15:39:13;12.40;91.40
7844;DHT22;3967;48.702;9.326;2023-04-25T15:41:40;12.10;90.50
7844;DHT22;3967;48.702;9.326;2023-04-25T15:44:07;12.00;91.70
7844;DHT22;3967;48.702;9.326;2023-04-25T15:46:36;12.00;92.30
7844;DHT22;3967;48.702;9.326;2023-04-25T15:49:03;12.10;92.50
7844;DHT22;3967;48.702;9.326;2023-04-25T15:51:30;12.30;91.80
7844;DHT22;3967;48.702;9.326;2023-04-25T15:53:57;12.20;92.10
7844;DHT22;3967;48.702;9.326;2023-04-25T15:56:23;12.20;91.90
7844;DHT22;3967;48.702;9.326;2023-04-25T15:58:50;12.10;91.30
7844;DHT22;3967;48.702;9.326;2023-04-25T16:01:17;11.90;91.00
7844;DHT22;3967;48.702;9.326;2023-04-25T16:03:44;11.70;92.60
7844;DHT22;3967;48.702;9.326;2023-04-25T16:06:11;11.50;94.90
7844;DHT22;3967;48.702;9.326;2023-04-25T16:08:38;11.50;95.00
7844;DHT22;3967;48.702;9.326;2023-04-25T16:11:05;11.50;94.90
7844;DHT22;3967;48.702;9.326;2023-04-25T16:13:32;11.60;94.70
7844;DHT22;3967;48.702;9.326;2023-04-25T16:16:00;11.70;94.60
7844;DHT22;3967;48.702;9.326;2023-04-25T16:18:27;11.70;95.60
7844;DHT22;3967;48.702;9.326;2023-04-25T16:20:54;11.80;95.80
7844;DHT22;3967;48.702;9.326;2023-04-25T16:23:21;11.80;95.50